Time;durP1;ratioP1;P1;durP2;ratioP2;P2;SDS_P1;SDS_P2;PMS_P1;PMS_P2;Temp;Humidity;BMP_temperature;BMP_pressure;BME280_temperature;BME280_humidity;BME280_pressure;Samples;Min_cycle;Max_cycle;Signal;HPM_P1;HPM_P2
2021/05/10 07:31:05;;;;;;;20.02;3.65;;;13.20;99.90;;;;;;5990812;23;20105;31
2021/05/10 07:33:32;;;;;;;30.52;4.10;;;13.30;99.90;;;;;;4896383;29;20503;-91
2021/05/10 07:35:58;;;;;;;26.92;4.10;;;13.30;99.90;;;;;;4912644;29;20427;-89
2021/05/10 07:38:25;;;;;;;18.30;4.03;;;13.30;99.90;;;;;;4914014;29;20048;-90
2021/05/10 07:40:52;;;;;;;20.90;3.10;;;13.30;99.90;;;;;;4913699;29;20104;-91
2021/05/10 07:43:18;;;;;;;21.25;3.95;;;13.20;99.90;;;;;;4908333;29;20431;-89
2021/05/10 07:45:44;;;;;;;18.45;3.30;;;13.20;99.90;;;;;;4895019;29;20050;-90
2021/05/10 07:48:11;;;;;;;19.13;3.60;;;13.20;99.90;;;;;;4910506;29;20065;-90
2021/05/10 07:50:37;;;;;;;15.48;3.75;;;13.30;99.90;;;;;;4912050;29;20453;-91
2021/05/10 07:53:04;;;;;;;21.05;3.33;;;13.30;99.90;;;;;;4906423;29;20049;-92
2021/05/10 07:55:30;;;;;;;20.35;3.88;;;13.40;99.90;;;;;;4913607;29;20508;-89
2021/05/10 07:57:57;;;;;;;24.55;3.92;;;13.50;99.90;;;;;;4913840;29;20053;-89
2021/05/10 08:00:32;;;;;;;15.20;3.05;;;13.70;99.90;;;;;;4909593;29;20100;-90
2021/05/10 08:03:06;;;;;;;22.77;3.65;;;13.80;99.90;;;;;;4895968;29;20045;-92
2021/05/10 08:05:38;;;;;;;24.92;3.83;;;14.00;99.90;;;;;;4909263;29;20433;-89
2021/05/10 08:08:06;;;;;;;23.23;3.47;;;14.10;99.90;;;;;;4912572;29;20107;-89
2021/05/10 08:10:33;;;;;;;18.75;3.05;;;14.20;99.90;;;;;;4912232;29;20045;-92
2021/05/10 08:12:59;;;;;;;18.80;3.58;;;14.20;99.90;;;;;;4911956;29;20055;-91
2021/05/10 08:15:26;;;;;;;18.25;3.25;;;14.20;99.90;;;;;;4909208;29;20048;-90
2021/05/10 08:17:52;;;;;;;24.15;4.60;;;14.20;99.90;;;;;;4913081;29;20091;-89
2021/05/10 08:20:41;;;;;;;22.80;4.50;;;14.30;99.90;;;;;;4897194;29;20120;-91
2021/05/10 08:23:07;;;;;;;20.30;3.50;;;14.40;99.90;;;;;;4902454;29;20040;-89
2021/05/10 08:25:34;;;;;;;16.70;3.42;;;14.50;99.90;;;;;;4914047;29;20059;-89
2021/05/10 08:28:00;;;;;;;15.10;3.30;;;14.80;99.90;;;;;;4901045;29;20048;-89
2021/05/10 08:30:27;;;;;;;14.85;3.10;;;15.00;99.90;;;;;;4925473;29;20048;-91
2021/05/10 08:32:57;;;;;;;20.35;3.65;;;15.20;99.90;;;;;;4930226;29;20048;-91
2021/05/10 08:35:25;;;;;;;18.23;3.50;;;15.30;99.90;;;;;;4934286;29;20048;-90
2021/05/10 08:38:02;;;;;;;16.40;3.78;;;15.40;99.90;;;;;;4916115;29;20050;-92
2021/05/10 08:40:29;;;;;;;18.92;3.00;;;15.30;99.90;;;;;;4933855;29;20052;-89
2021/05/10 08:42:56;;;;;;;23.73;4.53;;;15.30;99.90;;;;;;4934178;29;20052;-89
2021/05/10 08:45:23;;;;;;;18.27;3.38;;;15.30;99.90;;;;;;4933983;29;20056;-92
2021/05/10 08:47:51;;;;;;;16.95;3.50;;;15.20;99.90;;;;;;4920701;29;20076;-93
2021/05/10 08:50:18;;;;;;;17.58;3.60;;;15.10;99.90;;;;;;4934620;29;20143;-90
2021/05/10 08:52:44;;;;;;;18.65;3.40;;;14.90;99.90;;;;;;4920560;29;20056;-88
2021/05/10 08:55:17;;;;;;;14.50;2.90;;;14.80;99.90;;;;;;4935628;29;20448;-91
2021/05/10 08:57:45;;;;;;;13.95;2.70;;;14.80;99.90;;;;;;4920959;29;20051;-90
2021/05/10 09:00:15;;;;;;;16.48;3.42;;;14.70;99.90;;;;;;4934120;29;20055;-89
2021/05/10 09:02:41;;;;;;;18.10;2.50;;;14.70;99.90;;;;;;4918942;29;20052;-92
2021/05/10 09:05:13;;;;;;;20.17;3.58;;;14.60;99.90;;;;;;4918553;29;20048;-90
2021/05/10 09:07:39;;;;;;;17.88;2.90;;;14.60;99.90;;;;;;4918657;29;20056;-90
2021/05/10 09:10:12;;;;;;;21.90;3.55;;;14.60;99.90;;;;;;4915776;29;20683;-90
2021/05/10 09:12:51;;;;;;;15.35;2.22;;;14.60;99.90;;;;;;4933252;29;20056;-90
2021/05/10 09:15:25;;;;;;;16.88;2.38;;;14.70;99.90;;;;;;4931710;29;20084;-91
2021/05/10 09:18:05;;;;;;;21.83;3.47;;;14.90;99.90;;;;;;4906665;29;20048;-91
2021/05/10 09:20:42;;;;;;;17.13;2.97;;;15.00;99.90;;;;;;4909719;29;20052;-90
2021/05/10 09:23:13;;;;;;;18.33;3.25;;;15.00;99.90;;;;;;4927324;29;20579;-91
2021/05/10 09:25:42;;;;;;;15.65;2.83;;;14.90;99.90;;;;;;4908509;29;20067;-91
2021/05/10 09:28:11;;;;;;;18.77;3.10;;;14.80;99.90;;;;;;4915928;29;20558;-89
2021/05/10 09:30:40;;;;;;;15.52;2.75;;;14.70;99.90;;;;;;4916533;29;20529;-90
2021/05/10 09:33:13;;;;;;;17.80;2.95;;;14.60;99.90;;;;;;4909644;29;20052;-90
2021/05/10 09:35:40;;;;;;;18.25;2.85;;;14.60;99.90;;;;;;4915736;29;20083;-90
2021/05/10 09:38:08;;;;;;;16.15;2.63;;;14.40;99.90;;;;;;4927235;29;20064;-91
2021/05/10 09:40:43;;;;;;;16.00;3.45;;;14.30;99.90;;;;;;4906245;29;20562;-90
2021/05/10 09:43:17;;;;;;;19.60;3.25;;;14.20;99.90;;;;;;4927790;29;20044;-90
2021/05/10 09:45:46;;;;;;;29.75;3.58;;;14.20;99.90;;;;;;4911296;29;20060;-89
2021/05/10 09:48:21;;;;;;;22.25;3.83;;;14.20;99.90;;;;;;4929635;29;20052;-90
2021/05/10 09:50:58;;;;;;;22.85;3.53;;;14.30;99.90;;;;;;4915288;29;20052;-91
2021/05/10 09:53:35;;;;;;;16.90;2.50;;;14.60;99.90;;;;;;4928667;29;20060;-92
2021/05/10 09:56:03;;;;;;;13.60;3.05;;;14.80;99.90;;;;;;4926000;29;20052;-92
2021/05/10 09:58:39;;;;;;;13.63;2.80;;;14.90;99.90;;;;;;4930764;29;20130;-91
2021/05/10 10:01:06;;;;;;;23.33;3.08;;;14.90;99.90;;;;;;4914052;29;20048;-89
2021/05/10 10:03:38;;;;;;;14.20;2.63;;;14.70;99.90;;;;;;4916368;29;20048;-92
2021/05/10 10:06:08;;;;;;;14.75;2.53;;;14.60;99.90;;;;;;4914045;29;20056;-90
2021/05/10 10:08:37;;;;;;;14.50;2.40;;;14.30;99.90;;;;;;4929998;29;20044;-89
2021/05/10 10:11:06;;;;;;;12.60;2.63;;;14.30;99.90;;;;;;4909946;29;20107;-90
2021/05/10 10:13:33;;;;;;;10.50;2.35;;;14.20;99.90;;;;;;4927839;29;20449;-90
2021/05/10 10:16:01;;;;;;;9.80;1.88;;;14.10;99.90;;;;;;4924400;29;20048;-91
2021/05/10 10:18:28;;;;;;;11.55;2.10;;;14.20;99.90;;;;;;4914786;29;20048;-91
2021/05/10 10:20:59;;;;;;;10.13;2.17;;;14.20;99.90;;;;;;4927852;29;20052;-93
2021/05/10 10:23:28;;;;;;;20.25;3.10;;;14.30;99.90;;;;;;4924308;29;20471;-90
2021/05/10 10:25:57;;;;;;;10.75;2.30;;;14.50;99.90;;;;;;4915254;29;20052;-91
2021/05/10 10:28:26;;;;;;;12.82;2.90;;;14.70;99.90;;;;;;4914078;29;20052;-90
2021/05/10 10:31:08;;;;;;;11.40;2.35;;;14.90;99.90;;;;;;4913487;29;20044;-90
2021/05/10 10:33:55;;;;;;;15.93;2.78;;;15.10;99.90;;;;;;4914060;29;20104;-89
2021/05/10 10:36:44;;;;;;;16.60;2.70;;;15.20;99.90;;;;;;4914601;29;20435;-92
2021/05/10 10:39:23;;;;;;;11.98;2.30;;;15.30;99.90;;;;;;4929346;29;20051;-90
2021/05/10 10:41:57;;;;;;;12.25;2.47;;;15.40;99.90;;;;;;4907774;29;20511;-89
2021/05/10 10:44:42;;;;;;;11.15;2.20;;;15.50;99.90;;;;;;4913793;29;20126;-92
2021/05/10 10:47:12;;;;;;;11.63;2.30;;;15.70;99.90;;;;;;4914684;29;20096;-90
2021/05/10 10:49:39;;;;;;;13.20;2.00;;;15.70;99.90;;;;;;4908871;29;20538;-93
2021/05/10 10:52:23;;;;;;;12.10;2.53;;;15.80;99.90;;;;;;4915521;29;20415;-91
2021/05/10 10:55:12;;;;;;;9.73;2.10;;;16.00;99.90;;;;;;4930541;29;20052;-90
2021/05/10 10:57:38;;;;;;;7.85;1.92;;;16.10;99.90;;;;;;4918154;29;20784;-91
2021/05/10 11:00:05;;;;;;;9.15;1.80;;;16.20;99.90;;;;;;4911790;29;20059;-89
2021/05/10 11:02:50;;;;;;;8.70;1.95;;;16.30;99.90;;;;;;4915060;29;20051;-90
2021/05/10 11:05:25;;;;;;;10.35;2.00;;;16.40;99.90;;;;;;4928699;29;20522;-91
2021/05/10 11:07:58;;;;;;;10.73;1.95;;;16.40;99.90;;;;;;4931539;29;20055;-92
2021/05/10 11:10:51;;;;;;;8.57;2.10;;;16.40;99.90;;;;;;4925128;29;20064;-90
2021/05/10 11:13:29;;;;;;;10.57;2.30;;;16.50;99.90;;;;;;4928663;29;20087;-90
2021/05/10 11:16:21;;;;;;;9.60;2.47;;;16.60;99.90;;;;;;4914352;29;20503;-91
2021/05/10 11:18:56;;;;;;;15.48;2.72;;;16.60;99.90;;;;;;4871408;29;20053;-90
2021/05/10 11:21:23;;;;;;;12.52;2.67;;;16.80;99.90;;;;;;4873691;29;20056;-91
2021/05/10 11:23:50;;;;;;;12.80;2.38;;;16.80;99.90;;;;;;4857929;29;20053;-91
2021/05/10 11:26:44;;;;;;;15.25;2.50;;;16.90;99.90;;;;;;4862018;29;20072;-92
2021/05/10 11:29:26;;;;;;;10.98;2.03;;;17.00;99.90;;;;;;4862898;29;20245;-93
2021/05/10 11:31:54;;;;;;;10.20;1.95;;;16.90;99.90;;;;;;4862528;29;20053;-90
2021/05/10 11:34:37;;;;;;;12.77;2.28;;;16.90;99.90;;;;;;4874359;29;20049;-92
2021/05/10 11:37:07;;;;;;;14.40;2.40;;;17.00;99.90;;;;;;4861197;29;20053;-93
2021/05/10 11:39:34;;;;;;;10.75;1.88;;;16.90;99.90;;;;;;4877610;29;20049;-91
2021/05/10 11:42:02;;;;;;;11.55;2.78;;;16.80;99.90;;;;;;4878313;29;20045;-92
2021/05/10 11:44:42;;;;;;;12.07;2.03;;;16.80;99.90;;;;;;4879007;29;20113;-90
2021/05/10 11:47:28;;;;;;;15.95;2.33;;;16.80;99.90;;;;;;4865596;29;20135;-89
2021/05/10 11:49:57;;;;;;;11.93;1.98;;;16.80;99.90;;;;;;4879307;29;20081;-91
2021/05/10 11:52:25;;;;;;;13.77;2.53;;;16.80;99.90;;;;;;4877730;29;20059;-93
2021/05/10 11:54:55;;;;;;;14.88;2.65;;;16.70;99.90;;;;;;4885098;29;20052;-92
2021/05/10 11:57:25;;;;;;;11.32;1.85;;;16.60;99.90;;;;;;4934094;29;20071;-91
2021/05/10 12:00:04;;;;;;;10.40;2.13;;;16.50;99.90;;;;;;4931075;29;20105;-93
2021/05/10 12:02:32;;;;;;;13.73;2.72;;;16.60;99.90;;;;;;4915461;29;20058;-91
2021/05/10 12:05:05;;;;;;;15.65;2.50;;;16.60;99.90;;;;;;4917623;29;20063;-92
2021/05/10 12:07:32;;;;;;;11.95;2.63;;;16.70;99.90;;;;;;4929478;29;20048;-90
2021/05/10 12:10:01;;;;;;;11.88;2.88;;;16.70;99.90;;;;;;4930877;29;20048;-90
2021/05/10 12:12:46;;;;;;;11.88;2.53;;;16.80;99.90;;;;;;4932362;29;20046;-91
2021/05/10 12:15:27;;;;;;;14.57;2.63;;;16.80;99.90;;;;;;4931424;29;20083;-91
2021/05/10 12:17:55;;;;;;;8.75;1.90;;;16.70;99.90;;;;;;4918081;29;20063;-93
2021/05/10 12:20:27;;;;;;;;;;;16.90;99.90;;;;;;4933107;29;20064;-92
2021/05/10 12:22:57;;;;;;;12.35;2.30;;;16.70;99.90;;;;;;4932815;29;19930;-92
2021/05/10 12:25:25;;;;;;;8.57;1.73;;;16.60;99.90;;;;;;4932372;29;20056;-91
2021/05/10 12:28:08;;;;;;;9.38;1.52;;;16.60;99.90;;;;;;4928916;29;20044;-93
2021/05/10 12:30:49;;;;;;;4.75;1.20;;;16.70;99.90;;;;;;4931414;29;20415;-90
2021/05/10 12:33:26;;;;;;;6.20;1.70;;;16.80;99.90;;;;;;4929106;29;20139;-92
2021/05/10 12:35:59;;;;;;;7.85;1.70;;;16.90;99.90;;;;;;4933190;29;20055;-90
2021/05/10 12:38:27;;;;;;;11.57;1.95;;;16.80;99.90;;;;;;4933146;29;20054;-92
2021/05/10 12:40:54;;;;;;;11.18;2.47;;;16.80;99.90;;;;;;4917226;29;20515;-91
2021/05/10 12:43:26;;;;;;;9.48;1.98;;;16.80;99.90;;;;;;4932606;29;20048;-92
2021/05/10 12:46:06;;;;;;;6.65;2.00;;;16.90;99.90;;;;;;4917554;29;20040;-91
2021/05/10 12:48:45;;;;;;;9.40;1.83;;;16.90;99.90;;;;;;4934870;29;20111;-91
2021/05/10 12:51:15;;;;;;;11.25;1.83;;;16.90;99.90;;;;;;4935200;29;20415;-91
2021/05/10 12:53:47;;;;;;;9.05;1.75;;;17.00;99.90;;;;;;4931311;29;20499;-91
2021/05/10 12:56:15;;;;;;;5.10;1.35;;;17.10;99.90;;;;;;4933255;29;20067;-91
2021/05/10 12:58:50;;;;;;;3.95;1.08;;;17.10;99.90;;;;;;4918236;29;20059;-92
2021/05/10 13:01:23;;;;;;;6.13;1.15;;;17.10;99.80;;;;;;4932062;29;20055;-91
2021/05/10 13:04:00;;;;;;;8.77;1.75;;;17.00;99.50;;;;;;4934162;29;20668;-92
2021/05/10 13:06:38;;;;;;;6.47;1.23;;;17.10;99.10;;;;;;4936232;29;20139;-91
2021/05/10 13:09:26;;;;;;;4.15;1.10;;;17.00;99.20;;;;;;4933139;29;20055;-91
2021/05/10 13:11:59;;;;;;;3.45;0.98;;;17.00;99.40;;;;;;4906458;29;20072;-92
2021/05/10 13:33:29;;;;;;;8.27;1.92;;;17.20;99.90;;;;;;4921087;29;20317;-92
2021/05/10 13:36:06;;;;;;;8.07;2.22;;;17.40;99.90;;;;;;4929319;29;20146;-91
2021/05/10 13:38:34;;;;;;;10.32;2.30;;;17.40;99.00;;;;;;4922353;29;20422;-91
2021/05/10 13:41:08;;;;;;;12.88;2.08;;;17.30;99.40;;;;;;4919567;29;20044;-93
2021/05/10 13:46:25;;;;;;;7.80;1.75;;;17.40;99.70;;;;;;4922518;29;20055;-91
2021/05/10 13:48:51;;;;;;;6.93;1.77;;;17.40;99.40;;;;;;4936767;29;20055;-92
2021/05/10 13:51:18;;;;;;;8.75;1.83;;;17.40;99.20;;;;;;4935483;29;20072;-91
2021/05/10 13:53:45;;;;;;;9.27;1.70;;;17.50;99.40;;;;;;4934409;29;20400;-93
2021/05/10 13:56:12;;;;;;;9.55;1.88;;;17.50;99.60;;;;;;4919239;29;20071;-92
2021/05/10 13:58:42;;;;;;;9.00;1.70;;;17.60;99.80;;;;;;4919461;29;20503;-91
2021/05/10 14:01:08;;;;;;;6.22;1.65;;;17.50;98.50;;;;;;4937284;29;20128;-92
2021/05/10 14:03:35;;;;;;;9.98;1.92;;;17.30;98.40;;;;;;4939650;29;20431;-93
2021/05/10 14:06:01;;;;;;;10.65;2.70;;;17.30;99.00;;;;;;4925848;29;20122;-92
2021/05/10 14:08:28;;;;;;;8.18;2.00;;;17.40;99.50;;;;;;4943726;29;20080;-91
2021/05/10 14:10:58;;;;;;;6.47;1.65;;;17.40;99.50;;;;;;4923300;29;20044;-91
2021/05/10 14:13:25;;;;;;;6.88;1.70;;;17.40;98.40;;;;;;4937950;29;20052;-90
2021/05/10 14:15:51;;;;;;;8.52;1.75;;;17.40;98.20;;;;;;4939463;29;20048;-92
2021/05/10 14:18:22;;;;;;;8.60;2.03;;;17.40;98.30;;;;;;4937580;29;20052;-91
2021/05/10 14:23:34;;;;;;;5.78;1.52;;;17.40;98.50;;;;;;4910103;29;20073;-91
2021/05/10 14:26:01;;;;;;;9.43;1.73;;;17.40;98.90;;;;;;4937784;29;20419;-91
2021/05/10 14:28:29;;;;;;;8.52;1.88;;;17.50;98.70;;;;;;4936883;29;20052;-93
2021/05/10 14:31:01;;;;;;;5.90;1.35;;;17.60;98.80;;;;;;4937820;29;20048;-92
2021/05/10 14:33:29;;;;;;;8.68;1.58;;;17.60;98.20;;;;;;4936727;29;20456;-92
2021/05/10 14:35:59;;;;;;;5.68;1.50;;;17.50;97.60;;;;;;4936076;29;20055;-93
2021/05/10 14:38:26;;;;;;;9.40;1.58;;;17.50;97.40;;;;;;4936151;29;20048;-92
2021/05/10 14:40:53;;;;;;;6.05;1.35;;;17.40;96.90;;;;;;4921313;29;20054;-92
2021/05/10 14:43:20;;;;;;;5.50;1.15;;;17.40;96.50;;;;;;4936238;29;20052;-91
2021/05/10 14:45:47;;;;;;;3.58;1.02;;;17.40;95.90;;;;;;4937865;29;20047;-92
2021/05/10 14:48:14;;;;;;;6.28;1.40;;;17.30;95.50;;;;;;4934849;29;20059;-92
2021/05/10 14:50:41;;;;;;;5.47;1.25;;;17.30;96.10;;;;;;4937686;29;20480;-93
2021/05/10 14:53:08;;;;;;;3.85;0.90;;;17.30;95.90;;;;;;4935457;29;20104;-92
2021/05/10 14:55:35;;;;;;;6.38;0.90;;;17.30;95.80;;;;;;4921324;29;20044;-92
2021/05/10 14:58:02;;;;;;;5.20;1.25;;;17.30;95.80;;;;;;4937944;29;20048;-93
2021/05/10 15:00:28;;;;;;;4.63;1.00;;;17.30;95.50;;;;;;4937259;29;20430;-91
2021/05/10 15:02:55;;;;;;;4.65;1.02;;;17.20;94.50;;;;;;4939026;29;20052;-92
2021/05/10 15:05:21;;;;;;;3.33;0.90;;;17.10;94.90;;;;;;4939022;29;20056;-93
2021/05/10 15:07:48;;;;;;;4.88;1.25;;;17.10;95.10;;;;;;4922557;29;20052;-91
2021/05/10 15:10:15;;;;;;;7.43;1.10;;;17.00;95.10;;;;;;4936360;29;20052;-91
2021/05/10 15:12:42;;;;;;;4.00;0.93;;;17.00;95.30;;;;;;4937442;29;20059;-92
2021/05/10 15:15:10;;;;;;;4.28;0.90;;;16.90;95.30;;;;;;4932389;29;20058;-92
2021/05/10 15:17:36;;;;;;;5.35;1.00;;;16.80;95.70;;;;;;4934077;29;20052;-92
2021/05/10 15:20:05;;;;;;;;;;;16.80;96.10;;;;;;4921199;29;20059;-92
2021/05/10 15:22:32;;;;;;;4.13;1.10;;;16.80;96.00;;;;;;4936429;29;19974;-92
2021/05/10 15:24:59;;;;;;;4.85;1.10;;;16.70;96.30;;;;;;4925140;29;20052;-91
2021/05/10 15:27:25;;;;;;;6.22;1.30;;;16.70;96.10;;;;;;4938626;29;20135;-90
2021/05/10 15:29:52;;;;;;;7.63;1.42;;;16.70;96.80;;;;;;4934622;29;20048;-92
2021/05/10 15:32:18;;;;;;;5.85;1.38;;;16.70;97.40;;;;;;4934395;29;20060;-92
2021/05/10 15:34:45;;;;;;;5.85;1.40;;;16.70;97.20;;;;;;4933928;29;20092;-91
2021/05/10 15:37:11;;;;;;;8.02;1.38;;;16.70;97.20;;;;;;4927112;29;20047;-91
2021/05/10 15:39:38;;;;;;;8.85;1.70;;;16.70;97.30;;;;;;4918893;29;20044;-93
2021/05/10 15:42:05;;;;;;;6.82;1.50;;;16.70;97.70;;;;;;4935491;29;20107;-92
2021/05/10 15:44:31;;;;;;;9.23;1.60;;;16.60;97.50;;;;;;4934592;29;20166;-92
2021/05/10 15:46:57;;;;;;;6.97;1.77;;;16.70;97.20;;;;;;4936996;29;20062;-91
2021/05/10 15:49:24;;;;;;;8.57;1.45;;;16.60;96.90;;;;;;4943626;29;20047;-92
2021/05/10 15:51:51;;;;;;;8.77;1.55;;;16.60;97.00;;;;;;4941153;29;20054;-93
2021/05/10 15:54:17;;;;;;;5.78;1.35;;;16.60;96.90;;;;;;4932664;29;20111;-93
2021/05/10 15:56:46;;;;;;;7.80;1.90;;;16.50;96.50;;;;;;4933319;29;20048;-91
2021/05/10 15:59:12;;;;;;;5.60;1.70;;;16.50;96.90;;;;;;4934597;29;20052;-92
2021/05/10 16:01:39;;;;;;;8.48;1.50;;;16.50;96.80;;;;;;4920001;29;20044;-93
2021/05/10 16:04:07;;;;;;;7.10;1.40;;;16.70;97.00;;;;;;4931865;29;20515;-91
2021/05/10 16:06:34;;;;;;;16.27;2.00;;;16.80;96.90;;;;;;4933804;29;20052;-92
2021/05/10 16:09:01;;;;;;;7.43;1.40;;;16.90;96.30;;;;;;4911621;29;20389;-91
2021/05/10 16:11:29;;;;;;;6.38;1.40;;;17.10;96.50;;;;;;4930629;29;20051;-91
2021/05/10 16:13:55;;;;;;;6.28;1.30;;;17.30;96.60;;;;;;4917784;29;20052;-91
2021/05/10 16:16:24;;;;;;;5.93;1.25;;;17.30;96.50;;;;;;4933081;29;20062;-93
2021/05/10 16:18:51;;;;;;;;;;;17.20;96.00;;;;;;4932715;29;20416;-92
2021/05/10 16:21:18;;;;;;;5.72;1.30;;;17.10;96.40;;;;;;4931603;29;19927;-93
2021/05/10 16:23:45;;;;;;;6.68;1.55;;;17.20;96.70;;;;;;4935208;29;20048;-93
2021/05/10 16:26:12;;;;;;;7.22;1.50;;;17.10;95.70;;;;;;4918485;29;20411;-92
2021/05/10 16:28:38;;;;;;;5.57;1.25;;;17.10;95.80;;;;;;4919246;29;20044;-91
2021/05/10 16:31:05;;;;;;;6.40;1.33;;;17.00;95.70;;;;;;4926976;29;20060;-91
2021/05/10 16:33:31;;;;;;;5.28;1.40;;;16.80;96.10;;;;;;4917641;29;20048;-93
2021/05/10 16:35:58;;;;;;;7.18;1.33;;;16.70;96.20;;;;;;4930942;29;20052;-91
2021/05/10 16:38:26;;;;;;;10.07;1.67;;;16.50;96.30;;;;;;4919218;29;20055;-94
2021/05/10 16:40:54;;;;;;;10.70;1.50;;;16.40;96.60;;;;;;4927250;29;20048;-94
2021/05/10 16:43:24;;;;;;;8.20;1.85;;;16.30;96.60;;;;;;4932868;29;20056;-93
2021/05/10 16:45:51;;;;;;;5.47;1.40;;;16.30;97.00;;;;;;4923403;29;20048;-93
2021/05/10 16:48:18;;;;;;;9.98;1.67;;;16.40;97.30;;;;;;4938778;29;20056;-93
2021/05/10 16:50:47;;;;;;;8.30;1.60;;;16.50;97.30;;;;;;4930828;29;20138;-94
2021/05/10 16:53:14;;;;;;;7.28;1.80;;;16.60;97.00;;;;;;4923395;29;20059;-93
2021/05/10 16:55:40;;;;;;;5.63;1.48;;;16.50;97.10;;;;;;4923711;29;20055;-94
2021/05/10 16:58:09;;;;;;;9.32;1.63;;;16.40;97.20;;;;;;4919093;29;20064;-95
2021/05/10 17:00:39;;;;;;;8.48;1.38;;;16.20;97.40;;;;;;4942045;29;20502;-94
2021/05/10 17:03:06;;;;;;;6.28;1.75;;;16.20;98.10;;;;;;4922117;29;20048;-93
2021/05/10 17:05:33;;;;;;;10.30;1.92;;;16.10;98.30;;;;;;4935090;29;20047;-94
2021/05/10 17:08:04;;;;;;;8.27;1.75;;;15.90;98.40;;;;;;4923109;29;20056;-93
2021/05/10 17:10:31;;;;;;;9.88;1.52;;;15.80;98.60;;;;;;4922907;29;20056;-93
2021/05/10 17:12:58;;;;;;;6.15;1.58;;;15.70;98.90;;;;;;4923953;29;20099;-93
2021/05/10 17:15:24;;;;;;;10.15;1.77;;;15.70;99.00;;;;;;4913018;29;20058;-93
2021/05/10 17:17:51;;;;;;;6.32;1.88;;;15.60;99.40;;;;;;4918120;29;20056;-91
2021/05/10 17:20:19;;;;;;;6.05;1.10;;;15.50;99.60;;;;;;4916213;29;20052;-93
2021/05/10 17:22:46;;;;;;;10.70;1.70;;;15.50;99.90;;;;;;4916398;29;20053;-90
2021/05/10 17:25:14;;;;;;;6.72;1.50;;;15.40;99.90;;;;;;4915008;29;20060;-90
2021/05/10 17:27:41;;;;;;;9.85;1.50;;;15.50;99.90;;;;;;4926217;29;20055;-89
2021/05/10 17:30:08;;;;;;;6.05;1.40;;;15.60;99.90;;;;;;4915029;29;20059;-89
2021/05/10 17:32:35;;;;;;;8.23;1.50;;;15.60;99.90;;;;;;4913099;29;20052;-90
2021/05/10 17:35:02;;;;;;;7.50;1.33;;;15.50;99.90;;;;;;4913471;29;20044;-91
2021/05/10 17:37:28;;;;;;;6.97;1.00;;;15.50;99.90;;;;;;4914651;29;20056;-90
2021/05/10 17:39:55;;;;;;;7.18;1.23;;;15.70;99.90;;;;;;4913707;29;20052;-92
2021/05/10 17:42:22;;;;;;;6.32;1.25;;;15.90;99.90;;;;;;4914044;29;20048;-92
2021/05/10 17:44:49;;;;;;;3.53;1.10;;;16.00;99.90;;;;;;4915531;29;20084;-91
2021/05/10 17:47:16;;;;;;;3.65;1.00;;;16.30;99.90;;;;;;4914347;29;20075;-92
2021/05/10 17:49:46;;;;;;;4.57;1.10;;;16.70;99.90;;;;;;4930029;29;20426;-91
2021/05/10 17:52:12;;;;;;;5.20;1.33;;;17.20;99.90;;;;;;4926022;29;20448;-91
2021/05/10 17:54:39;;;;;;;7.47;1.35;;;17.60;99.50;;;;;;4917628;29;20048;-90
2021/05/10 17:57:05;;;;;;;6.68;1.65;;;17.70;99.00;;;;;;4911326;29;20052;-91
2021/05/10 17:59:33;;;;;;;7.60;1.38;;;17.90;98.60;;;;;;4914326;29;20052;-92
2021/05/10 18:04:26;;;;;;;5.68;1.30;;;18.90;97.60;;;;;;4919297;29;20048;-92
2021/05/10 18:06:53;;;;;;;7.28;1.60;;;19.60;97.00;;;;;;4918903;29;20079;-92
2021/05/10 18:09:23;;;;;;;8.45;1.40;;;20.10;95.90;;;;;;4915063;29;20044;-93
2021/05/10 18:11:50;;;;;;;6.13;1.60;;;20.50;95.10;;;;;;4920132;29;20044;-93
2021/05/10 18:14:19;;;;;;;7.65;1.70;;;20.90;94.70;;;;;;4924678;29;20053;-92
2021/05/10 18:16:50;;;;;;;6.68;1.50;;;21.20;93.90;;;;;;4932644;29;20048;-93
2021/05/10 18:19:20;;;;;;;7.00;1.55;;;21.30;93.00;;;;;;4919691;29;20071;-92
2021/05/10 18:21:47;;;;;;;7.38;1.50;;;21.50;92.80;;;;;;4920813;29;20044;-92
2021/05/10 18:24:14;;;;;;;7.55;1.25;;;21.60;92.30;;;;;;4934284;29;20048;-93
2021/05/10 18:26:41;;;;;;;7.85;1.40;;;21.70;91.90;;;;;;4922693;29;20048;-92
2021/05/10 18:29:07;;;;;;;5.55;1.40;;;21.60;90.90;;;;;;4920377;29;20059;-95
2021/05/10 18:31:34;;;;;;;8.57;1.65;;;21.40;90.20;;;;;;4922203;29;20067;-93
2021/05/10 18:34:01;;;;;;;6.45;2.10;;;21.00;90.10;;;;;;4932884;29;20052;-91
2021/05/10 18:36:30;;;;;;;6.50;1.63;;;20.70;90.40;;;;;;4918309;29;20054;-91
2021/05/10 18:38:59;;;;;;;9.70;1.60;;;20.70;90.70;;;;;;4924791;29;20059;-93
2021/05/10 18:41:27;;;;;;;6.72;1.77;;;20.90;90.90;;;;;;4920511;29;20480;-93
2021/05/10 18:44:02;;;;;;;6.13;1.42;;;21.30;91.00;;;;;;4924596;29;20067;-94
2021/05/10 18:46:29;;;;;;;5.43;1.60;;;21.70;90.40;;;;;;4925344;29;20044;-92
2021/05/10 18:49:00;;;;;;;7.80;2.30;;;21.50;90.60;;;;;;4932045;29;20070;-92
2021/05/10 18:51:33;;;;;;;8.18;1.38;;;21.10;90.60;;;;;;4919928;29;20135;-93
2021/05/10 18:53:59;;;;;;;6.53;1.70;;;20.50;90.40;;;;;;4914224;29;20056;-93
2021/05/10 18:56:27;;;;;;;8.70;1.90;;;19.90;90.80;;;;;;4922318;29;20075;-92
2021/05/10 18:58:54;;;;;;;9.23;1.75;;;19.30;91.20;;;;;;4915881;29;20068;-92
2021/05/10 19:01:23;;;;;;;6.97;1.60;;;18.80;91.80;;;;;;4918014;29;20515;-93
2021/05/10 19:03:53;;;;;;;8.23;1.83;;;18.40;92.40;;;;;;4919638;29;20583;-91
2021/05/10 19:06:20;;;;;;;9.45;1.73;;;18.00;92.90;;;;;;4932020;29;20567;-90
2021/05/10 19:08:47;;;;;;;9.68;1.90;;;17.60;93.50;;;;;;4914808;29;20048;-92
2021/05/10 19:11:24;;;;;;;11.57;1.83;;;17.20;94.00;;;;;;4916280;29;20047;-91
2021/05/10 19:13:52;;;;;;;8.75;1.75;;;16.80;94.50;;;;;;4929204;29;20088;-90
2021/05/10 19:16:23;;;;;;;10.07;1.77;;;16.50;95.00;;;;;;4919760;29;20570;-93
2021/05/10 19:19:05;;;;;;;10.00;1.83;;;16.10;95.60;;;;;;4924345;29;20048;-92
2021/05/10 19:21:33;;;;;;;9.48;2.40;;;15.90;96.10;;;;;;4942839;29;20072;-92
2021/05/10 19:24:00;;;;;;;12.38;2.08;;;15.70;96.50;;;;;;4931057;29;20055;-93
2021/05/10 19:26:28;;;;;;;12.70;2.00;;;15.50;96.90;;;;;;4916274;29;20067;-92
2021/05/10 19:29:01;;;;;;;9.73;2.05;;;15.20;97.40;;;;;;4929118;29;20044;-94
2021/05/10 19:31:36;;;;;;;11.18;1.75;;;15.10;97.90;;;;;;4935162;29;20083;-95
2021/05/10 19:34:02;;;;;;;8.32;1.80;;;14.80;98.30;;;;;;4933360;29;20054;-92
2021/05/10 19:36:32;;;;;;;9.57;1.88;;;14.70;98.80;;;;;;4920089;29;20048;-92
2021/05/10 19:38:59;;;;;;;13.07;1.98;;;14.50;99.20;;;;;;4919501;29;20048;-91
2021/05/10 19:41:26;;;;;;;11.20;2.28;;;14.30;99.60;;;;;;4931612;29;20056;-93
2021/05/10 19:43:53;;;;;;;9.80;1.63;;;14.20;99.90;;;;;;4916804;29;20135;-92
2021/05/10 19:46:24;;;;;;;7.70;2.40;;;14.00;99.90;;;;;;4927568;29;20048;-90
2021/05/10 19:49:04;;;;;;;12.13;1.80;;;13.90;99.90;;;;;;4932674;29;20052;-91
2021/05/10 20:00:14;;;;;;;9.32;1.98;;;13.30;99.90;;;;;;4914718;29;20048;-90
2021/05/10 20:02:26;;;;;;;11.65;2.20;;;13.20;99.90;;;;;;4910159;29;20140;-90
2021/05/10 20:04:52;;;;;;;7.93;1.92;;;13.10;99.90;;;;;;4919842;29;20067;-94
2021/05/10 20:07:23;;;;;;;13.60;1.90;;;13.00;99.90;;;;;;4929966;29;20091;-92
2021/05/10 20:09:53;;;;;;;10.27;1.90;;;12.90;99.90;;;;;;4931391;29;20516;-92
2021/05/10 20:12:21;;;;;;;7.47;1.95;;;12.80;99.90;;;;;;4912514;29;20052;-92
2021/05/10 20:14:47;;;;;;;8.57;2.08;;;12.80;99.90;;;;;;4909937;29;20103;-92
2021/05/10 20:17:14;;;;;;;10.07;1.80;;;12.70;99.90;;;;;;4914921;29;20560;-90
2021/05/10 20:19:41;;;;;;;7.20;1.48;;;12.60;99.90;;;;;;4932086;29;20056;-92
2021/05/10 20:22:08;;;;;;;9.13;1.52;;;12.50;99.90;;;;;;4914012;29;20123;-91
2021/05/10 20:24:34;;;;;;;10.32;2.05;;;12.50;99.90;;;;;;4912307;29;20056;-91
2021/05/10 20:27:02;;;;;;;12.48;2.10;;;12.40;99.90;;;;;;4926909;29;20048;-91
2021/05/10 20:29:29;;;;;;;11.18;1.92;;;12.30;99.90;;;;;;4913454;29;20095;-92
2021/05/10 20:31:56;;;;;;;10.10;1.80;;;12.30;99.90;;;;;;4915474;29;20054;-91
2021/05/10 20:34:22;;;;;;;10.27;2.47;;;12.20;99.90;;;;;;4919222;29;20062;-92
2021/05/10 20:36:49;;;;;;;10.38;1.85;;;12.20;99.90;;;;;;4920429;29;20080;-91
2021/05/10 20:39:16;;;;;;;9.55;2.00;;;12.10;99.90;;;;;;4919090;29;20059;-91
2021/05/10 20:41:43;;;;;;;8.07;1.90;;;12.10;99.90;;;;;;4917040;29;20597;-91
2021/05/10 20:44:10;;;;;;;13.35;2.13;;;12.10;99.90;;;;;;4917061;29;20415;-91
2021/05/10 20:46:36;;;;;;;8.68;2.05;;;12.00;99.90;;;;;;4915872;29;20052;-91
2021/05/10 20:49:04;;;;;;;11.52;1.67;;;12.00;99.90;;;;;;4931833;29;20076;-91
2021/05/10 20:51:30;;;;;;;7.70;1.90;;;11.90;99.90;;;;;;4910669;29;20044;-91
2021/05/10 20:53:57;;;;;;;11.52;2.00;;;11.90;99.90;;;;;;4930511;29;20059;-91
2021/05/10 20:56:23;;;;;;;9.95;1.98;;;11.80;99.90;;;;;;4914834;29;20063;-91
2021/05/10 20:58:51;;;;;;;8.63;2.03;;;11.80;99.90;;;;;;4915894;29;20055;-93
2021/05/10 21:01:19;;;;;;;9.98;2.08;;;11.80;99.90;;;;;;4909707;29;20059;-93